リーブルヴィル の空港の天気 - METARとTAF

リーブルヴィル国際空港 ( FOOL / LBV ) - ガボン リーブルヴィル
飛行場実況気象(Metar)
観測時間05/30 14:30 WAT (05/30 13:30 UTC)
風向・風速西南西 4m/s
視程10km以上
天気現象
少しの雲 雲底高度 400m
気温30℃
湿度70%
気圧1010hPa
METARFOOL 301330Z 24007KT 9999 FEW013 30/24 Q1010 NOSIG
過去の天気等 Google飛行場航空写真 Wunderground天気予報

過去48時間のMETAR

飛行場予報(TAF)
発表時間: 5/30 12:00 WAT (5/30 11:00 UTC)
予報対象時間: 30日13時 WAT ~ 31日19時 WAT
風向・風速南西 4m/s
視程10km以上
全天の4割程度の雲 雲底高度 370m
少しの積乱雲 雲底高度 610m
30日15時 WAT ~ 30日21時 WAT に一時的に
天気現象
全天の8割程度の雲 雲底高度 300m
少しの積乱雲 雲底高度 610m
30日22時 WAT ~ 31日7時 WAT に 確率 40% で一時的に
視程3500m
天気現象雷雨
全天の8割程度の雲 雲底高度 240m
少しの積乱雲 雲底高度 550m
全天を覆う雲 雲底高度 790m
TAF FOOL 301100Z 3012/3118 22008KT 9999 SCT012 FEW020CB
TEMPO 3014/3020 TS BKN010 FEW020CB
PROB40 TEMPO 3021/3106 3500 TSRA BKN008 FEW018CB OVC026